sensor_id;sensor_type;location;lat;lon;timestamp;pressure;altitude;pressure_sealevel;temperature;humidity
68376;BME280;55318;52.068;5.188;2023-04-06T00:00:59;101873.0;;;5.2;75.55
68376;BME280;55318;52.068;5.188;2023-04-06T00:02:35;101874.0;;;5.26;73.86
68376;BME280;55318;52.068;5.188;2023-04-06T00:04:11;101874.0;;;5.16;73.73
68376;BME280;55318;52.068;5.188;2023-04-06T00:05:48;101869.0;;;5.07;73.42
68376;BME280;55318;52.068;5.188;2023-04-06T00:09:01;101867.0;;;5.07;73.41
68376;BME280;55318;52.068;5.188;2023-04-06T00:10:37;101868.0;;;5.22;71.95
68376;BME280;55318;52.068;5.188;2023-04-06T00:12:13;101865.0;;;5.16;72.41
68376;BME280;55318;52.068;5.188;2023-04-06T00:15:26;101856.0;;;5.36;71.66
68376;BME280;55318;52.068;5.188;2023-04-06T00:17:02;101857.0;;;5.52;69.64
68376;BME280;55318;52.068;5.188;2023-04-06T00:18:38;101855.0;;;5.64;68.88
68376;BME280;55318;52.068;5.188;2023-04-06T00:21:52;101856.0;;;5.76;68.13
68376;BME280;55318;52.068;5.188;2023-04-06T00:23:28;101859.0;;;5.72;68.91
68376;BME280;55318;52.068;5.188;2023-04-06T00:25:05;101851.0;;;5.97;67.22
68376;BME280;55318;52.068;5.188;2023-04-06T00:26:41;101847.0;;;5.86;67.31
68376;BME280;55318;52.068;5.188;2023-04-06T00:29:53;101843.0;;;5.93;68.06
68376;BME280;55318;52.068;5.188;2023-04-06T00:31:30;101839.0;;;5.88;67.48
68376;BME280;55318;52.068;5.188;2023-04-06T00:33:06;101842.0;;;5.76;68.09
68376;BME280;55318;52.068;5.188;2023-04-06T00:36:18;101845.0;;;5.82;67.97
68376;BME280;55318;52.068;5.188;2023-04-06T00:37:54;101839.0;;;5.93;66.78
68376;BME280;55318;52.068;5.188;2023-04-06T00:39:30;101839.0;;;6.0;66.55
68376;BME280;55318;52.068;5.188;2023-04-06T00:42:42;101836.0;;;5.99;66.11
68376;BME280;55318;52.068;5.188;2023-04-06T00:44:19;101831.0;;;6.03;65.73
68376;BME280;55318;52.068;5.188;2023-04-06T00:45:56;101832.0;;;6.01;65.35
68376;BME280;55318;52.068;5.188;2023-04-06T00:49:09;101830.0;;;6.04;64.73
68376;BME280;55318;52.068;5.188;2023-04-06T00:50:45;101828.0;;;6.0;64.95
68376;BME280;55318;52.068;5.188;2023-04-06T00:52:21;101820.0;;;6.12;64.7
68376;BME280;55318;52.068;5.188;2023-04-06T00:53:58;101822.0;;;6.25;64.66
68376;BME280;55318;52.068;5.188;2023-04-06T00:57:11;101819.0;;;6.25;65.22
68376;BME280;55318;52.068;5.188;2023-04-06T00:58:48;101820.0;;;6.22;64.49
68376;BME280;55318;52.068;5.188;2023-04-06T01:00:24;101815.0;;;6.23;64.31
68376;BME280;55318;52.068;5.188;2023-04-06T01:03:36;101815.0;;;6.26;64.48
68376;BME280;55318;52.068;5.188;2023-04-06T01:05:12;101813.0;;;6.27;63.85
68376;BME280;55318;52.068;5.188;2023-04-06T01:06:49;101808.0;;;6.32;63.7
68376;BME280;55318;52.068;5.188;2023-04-06T01:10:03;101806.0;;;6.33;63.81
68376;BME280;55318;52.068;5.188;2023-04-06T01:11:40;101805.0;;;6.21;63.49
68376;BME280;55318;52.068;5.188;2023-04-06T01:13:16;101805.0;;;6.39;63.51
68376;BME280;55318;52.068;5.188;2023-04-06T01:14:52;101799.0;;;6.29;63.23
68376;BME280;55318;52.068;5.188;2023-04-06T01:18:04;101797.0;;;6.35;63.95
68376;BME280;55318;52.068;5.188;2023-04-06T01:19:41;101797.0;;;6.41;63.51
68376;BME280;55318;52.068;5.188;2023-04-06T01:21:17;101798.0;;;6.39;63.49
68376;BME280;55318;52.068;5.188;2023-04-06T01:24:29;101797.0;;;6.51;62.64
68376;BME280;55318;52.068;5.188;2023-04-06T01:26:05;101791.0;;;6.36;64.08
68376;BME280;55318;52.068;5.188;2023-04-06T01:27:41;101793.0;;;6.5;63.32
68376;BME280;55318;52.068;5.188;2023-04-06T01:30:53;101790.0;;;6.38;63.8
68376;BME280;55318;52.068;5.188;2023-04-06T01:32:30;101785.0;;;6.35;64.47
68376;BME280;55318;52.068;5.188;2023-04-06T01:34:06;101783.0;;;6.24;64.22
68376;BME280;55318;52.068;5.188;2023-04-06T01:37:18;101783.0;;;6.41;64.69
68376;BME280;55318;52.068;5.188;2023-04-06T01:38:54;101775.0;;;6.39;64.47
68376;BME280;55318;52.068;5.188;2023-04-06T01:40:30;101772.0;;;6.16;64.05
68376;BME280;55318;52.068;5.188;2023-04-06T01:42:06;101772.0;;;6.42;64.0
68376;BME280;55318;52.068;5.188;2023-04-06T01:45:19;101767.0;;;6.29;64.08
68376;BME280;55318;52.068;5.188;2023-04-06T01:46:55;101765.0;;;6.31;64.19
68376;BME280;55318;52.068;5.188;2023-04-06T01:48:31;101765.0;;;6.28;63.34
68376;BME280;55318;52.068;5.188;2023-04-06T01:51:43;101763.0;;;6.36;63.4
68376;BME280;55318;52.068;5.188;2023-04-06T01:53:19;101758.0;;;6.25;64.8
68376;BME280;55318;52.068;5.188;2023-04-06T01:54:56;101764.0;;;6.35;63.41
68376;BME280;55318;52.068;5.188;2023-04-06T01:58:08;101761.0;;;6.34;62.95
68376;BME280;55318;52.068;5.188;2023-04-06T01:59:44;101758.0;;;6.3;62.38
68376;BME280;55318;52.068;5.188;2023-04-06T02:01:20;101758.0;;;6.31;62.81
68376;BME280;55318;52.068;5.188;2023-04-06T02:02:56;101747.0;;;6.24;62.48
68376;BME280;55318;52.068;5.188;2023-04-06T02:06:09;101749.0;;;6.37;62.74
68376;BME280;55318;52.068;5.188;2023-04-06T02:07:45;101746.0;;;6.53;62.17
68376;BME280;55318;52.068;5.188;2023-04-06T02:09:21;101745.0;;;6.44;61.75
68376;BME280;55318;52.068;5.188;2023-04-06T02:12:33;101741.0;;;6.37;62.01
68376;BME280;55318;52.068;5.188;2023-04-06T02:14:09;101740.0;;;6.3;61.97
68376;BME280;55318;52.068;5.188;2023-04-06T02:15:45;101735.0;;;6.33;62.02
68376;BME280;55318;52.068;5.188;2023-04-06T02:18:58;101734.0;;;6.41;61.15
68376;BME280;55318;52.068;5.188;2023-04-06T02:20:34;101732.0;;;6.31;61.63
68376;BME280;55318;52.068;5.188;2023-04-06T02:22:10;101727.0;;;6.4;61.43
68376;BME280;55318;52.068;5.188;2023-04-06T02:25:22;101730.0;;;6.3;61.2
68376;BME280;55318;52.068;5.188;2023-04-06T02:26:58;101725.0;;;6.37;61.3
68376;BME280;55318;52.068;5.188;2023-04-06T02:28:36;101723.0;;;6.37;61.39
68376;BME280;55318;52.068;5.188;2023-04-06T02:30:12;101718.0;;;6.48;61.11
68376;BME280;55318;52.068;5.188;2023-04-06T02:33:24;101716.0;;;6.45;61.29
68376;BME280;55318;52.068;5.188;2023-04-06T02:35:00;101716.0;;;6.27;61.22
68376;BME280;55318;52.068;5.188;2023-04-06T02:36:37;101716.0;;;6.24;61.44
68376;BME280;55318;52.068;5.188;2023-04-06T02:39:50;101713.0;;;6.45;60.85
68376;BME280;55318;52.068;5.188;2023-04-06T02:41:26;101706.0;;;6.46;60.41
68376;BME280;55318;52.068;5.188;2023-04-06T02:43:02;101706.0;;;6.44;60.67
68376;BME280;55318;52.068;5.188;2023-04-06T02:46:14;101715.0;;;6.33;60.27
68376;BME280;55318;52.068;5.188;2023-04-06T02:47:50;101705.0;;;6.43;60.57
68376;BME280;55318;52.068;5.188;2023-04-06T02:49:26;101705.0;;;6.61;60.64
68376;BME280;55318;52.068;5.188;2023-04-06T02:51:03;101698.0;;;6.63;59.79
68376;BME280;55318;52.068;5.188;2023-04-06T02:54:15;101695.0;;;6.64;60.01
68376;BME280;55318;52.068;5.188;2023-04-06T02:55:51;101695.0;;;6.7;59.92
68376;BME280;55318;52.068;5.188;2023-04-06T02:57:27;101688.0;;;6.47;60.33
68376;BME280;55318;52.068;5.188;2023-04-06T03:00:40;101685.0;;;6.47;60.04
68376;BME280;55318;52.068;5.188;2023-04-06T03:02:16;101681.0;;;6.52;60.34
68376;BME280;55318;52.068;5.188;2023-04-06T03:03:52;101682.0;;;6.51;60.16
68376;BME280;55318;52.068;5.188;2023-04-06T03:07:04;101681.0;;;6.49;60.27
68376;BME280;55318;52.068;5.188;2023-04-06T03:08:40;101682.0;;;6.7;60.13
68376;BME280;55318;52.068;5.188;2023-04-06T03:10:16;101681.0;;;6.58;60.12
68376;BME280;55318;52.068;5.188;2023-04-06T03:13:29;101677.0;;;6.9;59.87
68376;BME280;55318;52.068;5.188;2023-04-06T03:15:05;101676.0;;;6.83;59.84
68376;BME280;55318;52.068;5.188;2023-04-06T03:16:42;101676.0;;;6.93;60.17
68376;BME280;55318;52.068;5.188;2023-04-06T03:18:21;101673.0;;;6.78;60.16
68376;BME280;55318;52.068;5.188;2023-04-06T03:21:33;101673.0;;;6.71;60.26
68376;BME280;55318;52.068;5.188;2023-04-06T03:23:09;101671.0;;;6.8;60.68
68376;BME280;55318;52.068;5.188;2023-04-06T03:24:46;101663.0;;;6.7;60.63
68376;BME280;55318;52.068;5.188;2023-04-06T03:27:58;101665.0;;;6.71;60.83
68376;BME280;55318;52.068;5.188;2023-04-06T03:29:34;101662.0;;;6.66;60.89
68376;BME280;55318;52.068;5.188;2023-04-06T03:31:10;101660.0;;;6.65;61.17
68376;BME280;55318;52.068;5.188;2023-04-06T03:34:22;101662.0;;;6.71;61.48
68376;BME280;55318;52.068;5.188;2023-04-06T03:35:59;101666.0;;;6.61;61.85
68376;BME280;55318;52.068;5.188;2023-04-06T03:37:35;101660.0;;;6.6;61.75
68376;BME280;55318;52.068;5.188;2023-04-06T03:39:11;101664.0;;;6.53;61.9
68376;BME280;55318;52.068;5.188;2023-04-06T03:42:24;101662.0;;;6.52;61.68
68376;BME280;55318;52.068;5.188;2023-04-06T03:44:00;101663.0;;;6.61;61.6
68376;BME280;55318;52.068;5.188;2023-04-06T03:45:37;101658.0;;;6.64;61.7
68376;BME280;55318;52.068;5.188;2023-04-06T03:48:49;101659.0;;;6.64;62.07
68376;BME280;55318;52.068;5.188;2023-04-06T03:50:25;101652.0;;;6.59;62.03
68376;BME280;55318;52.068;5.188;2023-04-06T03:52:01;101655.0;;;6.65;61.86
68376;BME280;55318;52.068;5.188;2023-04-06T03:55:13;101648.0;;;6.52;62.2
68376;BME280;55318;52.068;5.188;2023-04-06T03:56:49;101649.0;;;6.45;62.17
68376;BME280;55318;52.068;5.188;2023-04-06T03:58:25;101653.0;;;6.5;62.23
68376;BME280;55318;52.068;5.188;2023-04-06T04:01:37;101649.0;;;6.53;62.42
68376;BME280;55318;52.068;5.188;2023-04-06T04:03:13;101651.0;;;6.45;62.78
68376;BME280;55318;52.068;5.188;2023-04-06T04:04:49;101647.0;;;6.44;62.6
68376;BME280;55318;52.068;5.188;2023-04-06T04:06:25;101647.0;;;6.32;62.95
68376;BME280;55318;52.068;5.188;2023-04-06T04:09:38;101645.0;;;6.43;62.99
68376;BME280;55318;52.068;5.188;2023-04-06T04:11:14;101642.0;;;6.51;62.99
68376;BME280;55318;52.068;5.188;2023-04-06T04:12:50;101646.0;;;6.49;62.7
68376;BME280;55318;52.068;5.188;2023-04-06T04:16:02;101644.0;;;6.51;62.82
68376;BME280;55318;52.068;5.188;2023-04-06T04:17:39;101645.0;;;6.46;63.29
68376;BME280;55318;52.068;5.188;2023-04-06T04:19:15;101636.0;;;6.61;62.78
68376;BME280;55318;52.068;5.188;2023-04-06T04:22:27;101639.0;;;6.39;63.06
68376;BME280;55318;52.068;5.188;2023-04-06T04:24:04;101642.0;;;6.41;63.04
68376;BME280;55318;52.068;5.188;2023-04-06T04:25:41;101641.0;;;6.41;63.53
68376;BME280;55318;52.068;5.188;2023-04-06T04:32:14;101641.0;;;6.3;63.4
68376;BME280;55318;52.068;5.188;2023-04-06T04:33:51;101640.0;;;6.47;63.81
68376;BME280;55318;52.068;5.188;2023-04-06T04:37:03;101638.0;;;6.53;63.66
68376;BME280;55318;52.068;5.188;2023-04-06T04:38:39;101639.0;;;6.64;63.85
68376;BME280;55318;52.068;5.188;2023-04-06T04:40:16;101635.0;;;6.63;63.25
68376;BME280;55318;52.068;5.188;2023-04-06T04:43:29;101642.0;;;6.71;63.08
68376;BME280;55318;52.068;5.188;2023-04-06T04:45:05;101639.0;;;6.73;62.95
68376;BME280;55318;52.068;5.188;2023-04-06T04:46:41;101636.0;;;6.52;63.42
68376;BME280;55318;52.068;5.188;2023-04-06T04:48:18;101637.0;;;6.68;63.2
68376;BME280;55318;52.068;5.188;2023-04-06T04:51:30;101638.0;;;6.6;63.2
68376;BME280;55318;52.068;5.188;2023-04-06T04:53:07;101635.0;;;6.58;63.21
68376;BME280;55318;52.068;5.188;2023-04-06T04:54:43;101634.0;;;6.58;63.34
68376;BME280;55318;52.068;5.188;2023-04-06T04:57:55;101633.0;;;6.48;64.12
68376;BME280;55318;52.068;5.188;2023-04-06T04:59:33;101628.0;;;6.54;63.9
68376;BME280;55318;52.068;5.188;2023-04-06T05:01:11;101630.0;;;6.52;63.66
68376;BME280;55318;52.068;5.188;2023-04-06T05:04:24;101625.0;;;6.51;63.81
68376;BME280;55318;52.068;5.188;2023-04-06T05:05:59;101626.0;;;6.67;63.85
68376;BME280;55318;52.068;5.188;2023-04-06T05:07:36;101626.0;;;6.51;63.88
68376;BME280;55318;52.068;5.188;2023-04-06T05:09:13;101625.0;;;6.6;63.63
68376;BME280;55318;52.068;5.188;2023-04-06T05:12:26;101628.0;;;6.8;63.35
68376;BME280;55318;52.068;5.188;2023-04-06T05:14:02;101630.0;;;6.78;63.45
68376;BME280;55318;52.068;5.188;2023-04-06T05:15:39;101626.0;;;6.61;63.64
68376;BME280;55318;52.068;5.188;2023-04-06T05:18:52;101622.0;;;6.68;63.8
68376;BME280;55318;52.068;5.188;2023-04-06T05:20:28;101626.0;;;6.6;64.02
68376;BME280;55318;52.068;5.188;2023-04-06T05:22:05;101626.0;;;6.64;64.06
68376;BME280;55318;52.068;5.188;2023-04-06T05:26:55;101622.0;;;6.76;64.19
68376;BME280;55318;52.068;5.188;2023-04-06T05:28:32;101619.0;;;6.8;64.17
68376;BME280;55318;52.068;5.188;2023-04-06T05:30:08;101618.0;;;6.76;64.49
68376;BME280;55318;52.068;5.188;2023-04-06T05:33:22;101620.0;;;6.78;64.7
68376;BME280;55318;52.068;5.188;2023-04-06T05:34:59;101620.0;;;6.62;65.27
68376;BME280;55318;52.068;5.188;2023-04-06T05:36:36;101620.0;;;6.72;65.38
68376;BME280;55318;52.068;5.188;2023-04-06T05:39:48;101616.0;;;6.47;65.91
68376;BME280;55318;52.068;5.188;2023-04-06T05:41:24;101617.0;;;6.75;65.91
68376;BME280;55318;52.068;5.188;2023-04-06T05:43:01;101621.0;;;6.62;66.16
68376;BME280;55318;52.068;5.188;2023-04-06T05:46:14;101619.0;;;6.65;66.0
68376;BME280;55318;52.068;5.188;2023-04-06T05:47:51;101621.0;;;6.66;66.16
68376;BME280;55318;52.068;5.188;2023-04-06T05:49:27;101617.0;;;6.54;66.42
68376;BME280;55318;52.068;5.188;2023-04-06T05:51:03;101622.0;;;6.49;66.95
68376;BME280;55318;52.068;5.188;2023-04-06T05:54:17;101616.0;;;6.63;66.5
68376;BME280;55318;52.068;5.188;2023-04-06T05:55:53;101618.0;;;6.52;66.85
68376;BME280;55318;52.068;5.188;2023-04-06T05:57:29;101619.0;;;6.57;66.8
68376;BME280;55318;52.068;5.188;2023-04-06T06:00:42;101617.0;;;6.5;67.08
68376;BME280;55318;52.068;5.188;2023-04-06T06:02:19;101623.0;;;6.64;66.83
68376;BME280;55318;52.068;5.188;2023-04-06T06:03:57;101626.0;;;6.76;67.03
68376;BME280;55318;52.068;5.188;2023-04-06T06:07:10;101624.0;;;6.8;67.08
68376;BME280;55318;52.068;5.188;2023-04-06T06:08:46;101624.0;;;6.94;66.85
68376;BME280;55318;52.068;5.188;2023-04-06T06:10:22;101621.0;;;6.96;66.73
68376;BME280;55318;52.068;5.188;2023-04-06T06:11:59;101626.0;;;6.91;66.45
68376;BME280;55318;52.068;5.188;2023-04-06T06:15:12;101622.0;;;6.77;67.22
68376;BME280;55318;52.068;5.188;2023-04-06T06:16:48;101620.0;;;6.98;67.08
68376;BME280;55318;52.068;5.188;2023-04-06T06:18:24;101625.0;;;6.92;67.14
68376;BME280;55318;52.068;5.188;2023-04-06T06:21:37;101619.0;;;7.08;67.12
68376;BME280;55318;52.068;5.188;2023-04-06T06:23:13;101621.0;;;7.14;66.48
68376;BME280;55318;52.068;5.188;2023-04-06T06:24:50;101619.0;;;7.23;66.63
68376;BME280;55318;52.068;5.188;2023-04-06T06:28:02;101625.0;;;7.31;67.09
68376;BME280;55318;52.068;5.188;2023-04-06T06:29:38;101617.0;;;7.13;67.98
68376;BME280;55318;52.068;5.188;2023-04-06T06:31:15;101617.0;;;7.14;68.75
68376;BME280;55318;52.068;5.188;2023-04-06T06:32:51;101622.0;;;7.23;69.02
68376;BME280;55318;52.068;5.188;2023-04-06T06:36:04;101623.0;;;7.38;68.89
68376;BME280;55318;52.068;5.188;2023-04-06T06:37:40;101623.0;;;7.31;68.44
68376;BME280;55318;52.068;5.188;2023-04-06T06:39:16;101623.0;;;7.41;68.22
68376;BME280;55318;52.068;5.188;2023-04-06T06:42:28;101627.0;;;7.45;68.19
68376;BME280;55318;52.068;5.188;2023-04-06T06:44:04;101626.0;;;7.47;67.77
68376;BME280;55318;52.068;5.188;2023-04-06T06:45:41;101625.0;;;7.46;67.53
68376;BME280;55318;52.068;5.188;2023-04-06T06:48:54;101626.0;;;7.63;67.47
68376;BME280;55318;52.068;5.188;2023-04-06T06:50:30;101623.0;;;7.77;67.38
68376;BME280;55318;52.068;5.188;2023-04-06T06:52:06;101618.0;;;7.8;67.24
68376;BME280;55318;52.068;5.188;2023-04-06T06:53:42;101622.0;;;7.73;66.97
68376;BME280;55318;52.068;5.188;2023-04-06T06:56:54;101621.0;;;7.71;67.2
68376;BME280;55318;52.068;5.188;2023-04-06T06:58:31;101616.0;;;7.54;67.58
68376;BME280;55318;52.068;5.188;2023-04-06T07:00:08;101609.0;;;7.43;68.3
68376;BME280;55318;52.068;5.188;2023-04-06T07:03:21;101612.0;;;7.63;68.05
68376;BME280;55318;52.068;5.188;2023-04-06T07:04:57;101609.0;;;7.49;68.81
68376;BME280;55318;52.068;5.188;2023-04-06T07:06:34;101609.0;;;7.63;68.33
68376;BME280;55318;52.068;5.188;2023-04-06T07:09:47;101605.0;;;7.54;68.97
68376;BME280;55318;52.068;5.188;2023-04-06T07:11:24;101608.0;;;7.61;68.64
68376;BME280;55318;52.068;5.188;2023-04-06T07:13:00;101599.0;;;7.79;68.41
68376;BME280;55318;52.068;5.188;2023-04-06T07:16:12;101601.0;;;7.6;68.69
68376;BME280;55318;52.068;5.188;2023-04-06T07:17:48;101596.0;;;7.7;68.58
68376;BME280;55318;52.068;5.188;2023-04-06T07:19:24;101596.0;;;7.77;68.58
68376;BME280;55318;52.068;5.188;2023-04-06T07:21:01;101598.0;;;8.06;68.06
68376;BME280;55318;52.068;5.188;2023-04-06T07:24:14;101592.0;;;7.94;67.89
68376;BME280;55318;52.068;5.188;2023-04-06T07:25:50;101595.0;;;7.89;68.1
68376;BME280;55318;52.068;5.188;2023-04-06T07:27:26;101591.0;;;7.96;68.33
68376;BME280;55318;52.068;5.188;2023-04-06T07:30:39;101590.0;;;7.87;68.48
68376;BME280;55318;52.068;5.188;2023-04-06T07:32:16;101590.0;;;7.92;68.41
68376;BME280;55318;52.068;5.188;2023-04-06T07:33:52;101590.0;;;7.71;69.19
68376;BME280;55318;52.068;5.188;2023-04-06T07:37:04;101590.0;;;7.73;68.69
68376;BME280;55318;52.068;5.188;2023-04-06T07:38:40;101597.0;;;7.85;68.47
68376;BME280;55318;52.068;5.188;2023-04-06T07:40:16;101596.0;;;8.01;68.55
68376;BME280;55318;52.068;5.188;2023-04-06T07:41:52;101593.0;;;8.07;68.12
68376;BME280;55318;52.068;5.188;2023-04-06T07:45:05;101592.0;;;8.26;67.83
68376;BME280;55318;52.068;5.188;2023-04-06T07:46:42;101592.0;;;8.42;67.42
68376;BME280;55318;52.068;5.188;2023-04-06T07:48:18;101587.0;;;8.35;66.99
68376;BME280;55318;52.068;5.188;2023-04-06T07:51:30;101592.0;;;8.42;67.05
68376;BME280;55318;52.068;5.188;2023-04-06T07:53:06;101591.0;;;8.42;67.16
68376;BME280;55318;52.068;5.188;2023-04-06T07:54:44;101596.0;;;8.66;66.69
68376;BME280;55318;52.068;5.188;2023-04-06T07:57:56;101596.0;;;8.6;66.45
68376;BME280;55318;52.068;5.188;2023-04-06T07:59:33;101597.0;;;8.58;66.05
68376;BME280;55318;52.068;5.188;2023-04-06T08:01:09;101590.0;;;8.8;66.12
68376;BME280;55318;52.068;5.188;2023-04-06T08:02:45;101593.0;;;8.73;65.52
68376;BME280;55318;52.068;5.188;2023-04-06T08:05:57;101589.0;;;8.89;65.6
68376;BME280;55318;52.068;5.188;2023-04-06T08:07:34;101588.0;;;8.93;64.69
68376;BME280;55318;52.068;5.188;2023-04-06T08:09:09;101588.0;;;8.86;64.08
68376;BME280;55318;52.068;5.188;2023-04-06T08:12:21;101584.0;;;9.1;63.54
68376;BME280;55318;52.068;5.188;2023-04-06T08:13:57;101585.0;;;9.26;63.4
68376;BME280;55318;52.068;5.188;2023-04-06T08:15:33;101586.0;;;9.41;63.45
68376;BME280;55318;52.068;5.188;2023-04-06T08:18:45;101589.0;;;9.31;62.73
68376;BME280;55318;52.068;5.188;2023-04-06T08:20:22;101580.0;;;9.6;62.57
68376;BME280;55318;52.068;5.188;2023-04-06T08:21:58;101574.0;;;9.67;61.13
68376;BME280;55318;52.068;5.188;2023-04-06T08:25:10;101580.0;;;9.56;62.12
68376;BME280;55318;52.068;5.188;2023-04-06T08:26:46;101576.0;;;9.68;62.33
68376;BME280;55318;52.068;5.188;2023-04-06T08:28:21;101582.0;;;9.61;62.27
68376;BME280;55318;52.068;5.188;2023-04-06T08:29:57;101586.0;;;9.65;62.68
68376;BME280;55318;52.068;5.188;2023-04-06T08:33:10;101588.0;;;9.68;62.55
68376;BME280;55318;52.068;5.188;2023-04-06T08:34:46;101595.0;;;9.53;62.76
68376;BME280;55318;52.068;5.188;2023-04-06T08:36:22;101592.0;;;9.43;63.08
68376;BME280;55318;52.068;5.188;2023-04-06T08:39:34;101590.0;;;9.52;62.84
68376;BME280;55318;52.068;5.188;2023-04-06T08:41:12;101588.0;;;9.65;63.28
68376;BME280;55318;52.068;5.188;2023-04-06T08:42:51;101594.0;;;9.57;63.16
68376;BME280;55318;52.068;5.188;2023-04-06T08:46:08;101587.0;;;9.58;62.95
68376;BME280;55318;52.068;5.188;2023-04-06T08:47:44;101586.0;;;9.67;63.83
68376;BME280;55318;52.068;5.188;2023-04-06T08:49:22;101584.0;;;9.77;63.81
68376;BME280;55318;52.068;5.188;2023-04-06T08:50:58;101589.0;;;9.82;64.77
68376;BME280;55318;52.068;5.188;2023-04-06T08:54:13;101587.0;;;9.71;62.77
68376;BME280;55318;52.068;5.188;2023-04-06T08:55:49;101588.0;;;9.72;62.65
68376;BME280;55318;52.068;5.188;2023-04-06T08:57:26;101587.0;;;9.68;62.57
68376;BME280;55318;52.068;5.188;2023-04-06T09:00:40;101586.0;;;9.65;62.73
68376;BME280;55318;52.068;5.188;2023-04-06T09:02:18;101592.0;;;9.91;62.29
68376;BME280;55318;52.068;5.188;2023-04-06T09:03:57;101592.0;;;9.68;61.37
68376;BME280;55318;52.068;5.188;2023-04-06T09:05:34;101594.0;;;9.76;61.9
68376;BME280;55318;52.068;5.188;2023-04-06T09:08:47;101599.0;;;9.89;62.02
68376;BME280;55318;52.068;5.188;2023-04-06T09:10:23;101598.0;;;9.85;62.8
68376;BME280;55318;52.068;5.188;2023-04-06T09:11:59;101598.0;;;9.91;63.36
68376;BME280;55318;52.068;5.188;2023-04-06T09:15:21;101599.0;;;10.01;62.83
68376;BME280;55318;52.068;5.188;2023-04-06T09:16:58;101610.0;;;10.17;62.51
68376;BME280;55318;52.068;5.188;2023-04-06T09:18:34;101600.0;;;10.23;62.58
68376;BME280;55318;52.068;5.188;2023-04-06T09:20:11;101599.0;;;10.23;62.67
68376;BME280;55318;52.068;5.188;2023-04-06T09:23:23;101603.0;;;10.43;64.14
68376;BME280;55318;52.068;5.188;2023-04-06T09:24:59;101601.0;;;10.23;64.66
68376;BME280;55318;52.068;5.188;2023-04-06T09:26:44;101608.0;;;10.05;65.33
68376;BME280;55318;52.068;5.188;2023-04-06T09:30:04;101605.0;;;9.96;65.8
68376;BME280;55318;52.068;5.188;2023-04-06T09:31:41;101597.0;;;10.15;66.35
68376;BME280;55318;52.068;5.188;2023-04-06T09:33:22;101601.0;;;10.16;65.3
68376;BME280;55318;52.068;5.188;2023-04-06T09:35:06;101599.0;;;9.91;67.11
68376;BME280;55318;52.068;5.188;2023-04-06T09:38:19;101600.0;;;9.94;67.22
68376;BME280;55318;52.068;5.188;2023-04-06T09:40:02;101598.0;;;9.99;67.61
68376;BME280;55318;52.068;5.188;2023-04-06T09:41:39;101601.0;;;10.15;69.36
68376;BME280;55318;52.068;5.188;2023-04-06T09:43:23;101598.0;;;10.02;68.75
68376;BME280;55318;52.068;5.188;2023-04-06T09:46:38;101595.0;;;10.06;67.3
68376;BME280;55318;52.068;5.188;2023-04-06T09:48:15;101593.0;;;10.14;68.55
68376;BME280;55318;52.068;5.188;2023-04-06T09:49:56;101595.0;;;9.86;69.02
68376;BME280;55318;52.068;5.188;2023-04-06T09:51:36;101591.0;;;9.98;70.09
68376;BME280;55318;52.068;5.188;2023-04-06T09:54:55;101593.0;;;9.93;69.0
68376;BME280;55318;52.068;5.188;2023-04-06T09:56:45;101588.0;;;10.01;69.89
68376;BME280;55318;52.068;5.188;2023-04-06T09:58:22;101585.0;;;10.19;70.84
68376;BME280;55318;52.068;5.188;2023-04-06T10:00:03;101590.0;;;10.38;70.58
68376;BME280;55318;52.068;5.188;2023-04-06T10:03:21;101592.0;;;10.38;70.34
68376;BME280;55318;52.068;5.188;2023-04-06T10:05:09;101589.0;;;10.47;71.78
68376;BME280;55318;52.068;5.188;2023-04-06T10:06:48;101588.0;;;10.32;72.22
68376;BME280;55318;52.068;5.188;2023-04-06T10:08:27;101592.0;;;10.45;73.39
68376;BME280;55318;52.068;5.188;2023-04-06T10:11:43;101588.0;;;10.21;73.53
68376;BME280;55318;52.068;5.188;2023-04-06T10:13:19;101591.0;;;10.3;75.08
68376;BME280;55318;52.068;5.188;2023-04-06T10:14:56;101591.0;;;10.24;73.47
68376;BME280;55318;52.068;5.188;2023-04-06T10:18:08;101588.0;;;10.39;74.97
68376;BME280;55318;52.068;5.188;2023-04-06T10:19:49;101589.0;;;10.25;76.28
68376;BME280;55318;52.068;5.188;2023-04-06T10:21:40;101595.0;;;10.26;76.67
68376;BME280;55318;52.068;5.188;2023-04-06T10:23:25;101596.0;;;10.27;77.02
68376;BME280;55318;52.068;5.188;2023-04-06T10:25:07;101596.0;;;10.19;77.44
68376;BME280;55318;52.068;5.188;2023-04-06T10:28:34;101574.0;;;10.11;77.36
68376;BME280;55318;52.068;5.188;2023-04-06T10:30:15;101596.0;;;9.98;79.47
68376;BME280;55318;52.068;5.188;2023-04-06T10:31:51;101597.0;;;9.81;80.28
68376;BME280;55318;52.068;5.188;2023-04-06T10:33:27;101592.0;;;9.78;81.77
68376;BME280;55318;52.068;5.188;2023-04-06T10:36:43;101587.0;;;9.84;82.25
68376;BME280;55318;52.068;5.188;2023-04-06T10:38:19;101599.0;;;9.6;81.5
68376;BME280;55318;52.068;5.188;2023-04-06T10:39:56;101588.0;;;9.66;82.73
68376;BME280;55318;52.068;5.188;2023-04-06T10:43:10;101594.0;;;9.63;84.01
68376;BME280;55318;52.068;5.188;2023-04-06T10:44:49;101587.0;;;9.55;84.03
68376;BME280;55318;52.068;5.188;2023-04-06T10:46:26;101581.0;;;9.64;84.92
68376;BME280;55318;52.068;5.188;2023-04-06T10:48:20;101582.0;;;9.44;85.0
68376;BME280;55318;52.068;5.188;2023-04-06T10:51:33;101580.0;;;9.48;85.82
68376;BME280;55318;52.068;5.188;2023-04-06T10:53:21;101574.0;;;9.39;86.01
68376;BME280;55318;52.068;5.188;2023-04-06T10:54:58;101571.0;;;9.4;87.25
68376;BME280;55318;52.068;5.188;2023-04-06T10:56:37;101572.0;;;9.36;87.24
68376;BME280;55318;52.068;5.188;2023-04-06T10:59:53;101570.0;;;9.4;87.9
68376;BME280;55318;52.068;5.188;2023-04-06T11:01:28;101566.0;;;9.48;87.43
68376;BME280;55318;52.068;5.188;2023-04-06T11:03:04;101564.0;;;9.44;87.44
68376;BME280;55318;52.068;5.188;2023-04-06T11:06:18;101567.0;;;9.38;87.65
68376;BME280;55318;52.068;5.188;2023-04-06T11:07:55;101567.0;;;9.31;88.57
68376;BME280;55318;52.068;5.188;2023-04-06T11:09:31;101559.0;;;9.46;88.09
68376;BME280;55318;52.068;5.188;2023-04-06T11:11:09;101561.0;;;9.4;88.48
68376;BME280;55318;52.068;5.188;2023-04-06T11:14:28;101550.0;;;9.46;88.76
68376;BME280;55318;52.068;5.188;2023-04-06T11:16:04;101556.0;;;9.35;88.98
68376;BME280;55318;52.068;5.188;2023-04-06T11:17:40;101550.0;;;9.39;89.54
68376;BME280;55318;52.068;5.188;2023-04-06T11:20:53;101547.0;;;9.55;90.36